Time;durP1;ratioP1;P1;durP2;ratioP2;P2;SDS_P1;SDS_P2;PMS_P1;PMS_P2;Temp;Humidity;BMP_temperature;BMP_pressure;BME280_temperature;BME280_humidity;BME280_pressure;Samples;Min_cycle;Max_cycle;Signal;HPM_P1;HPM_P2
2022/10/06 00:00:53;;;;;;;4.93;1.30;;;;;;;10.25;100.00;100021.66;4993450;28;20062;-89
2022/10/06 00:03:21;;;;;;;3.10;1.20;;;;;;;10.41;100.00;100040.13;4996578;28;20049;-90
2022/10/06 00:05:50;;;;;;;4.57;1.17;;;;;;;10.79;100.00;100077.53;4983642;28;20096;-90
2022/10/06 00:08:18;;;;;;;3.88;1.05;;;;;;;10.67;100.00;100072.91;5012649;28;20057;-90
2022/10/06 00:10:44;;;;;;;3.22;1.20;;;;;;;10.52;100.00;100055.34;4999749;28;20439;-90
2022/10/06 00:13:11;;;;;;;7.32;1.30;;;;;;;10.37;100.00;100086.53;4992796;28;20058;-91
2022/10/06 00:15:38;;;;;;;2.17;0.95;;;;;;;10.41;100.00;100088.09;4995901;28;20540;-91
2022/10/06 00:18:05;;;;;;;4.70;1.45;;;;;;;9.94;100.00;100049.25;5008755;28;20046;-90
2022/10/06 00:20:32;;;;;;;2.63;1.10;;;;;;;10.19;100.00;100082.97;5012407;28;20480;-90
2022/10/06 00:22:58;;;;;;;4.82;1.20;;;;;;;10.12;100.00;100070.25;4996642;28;20053;-91
2022/10/06 00:25:27;;;;;;;4.63;1.38;;;;;;;10.08;100.00;100059.94;4982624;28;20096;-90
2022/10/06 00:27:54;;;;;;;5.78;1.10;;;;;;;10.05;100.00;100069.69;4993103;28;20070;-91
2022/10/06 00:30:24;;;;;;;8.32;2.40;;;;;;;10.45;100.00;100115.81;4986105;28;20048;-91
2022/10/06 00:32:56;;;;;;;8.98;1.40;;;;;;;10.19;100.00;100079.53;5007341;28;20096;-91
2022/10/06 00:35:25;;;;;;;3.53;1.40;;;;;;;10.40;100.00;100127.41;4997586;28;20146;-90
2022/10/06 00:37:52;;;;;;;2.42;1.00;;;;;;;10.27;100.00;100112.25;4994915;28;20431;-90
2022/10/06 00:40:20;;;;;;;6.07;1.23;;;;;;;10.35;100.00;100116.31;4995226;28;20472;-90
2022/10/06 00:42:57;;;;;;;3.55;1.08;;;;;;;10.22;100.00;100122.09;5004955;28;20049;-91
2022/10/06 00:45:30;;;;;;;1.58;0.90;;;;;;;10.05;100.00;100101.06;5016665;28;20046;-90
2022/10/06 00:47:59;;;;;;;;;;;;;;;10.40;100.00;100130.88;4993916;28;20049;-89
2022/10/06 00:50:26;;;;;;;2.72;1.38;;;;;;;9.91;100.00;100100.84;4988181;28;19925;-89
2022/10/06 00:52:54;;;;;;;4.13;1.23;;;;;;;9.59;100.00;100074.38;4994788;28;20099;-90
2022/10/06 00:55:21;;;;;;;5.93;1.23;;;;;;;9.91;100.00;100133.06;4995872;28;20050;-89
2022/10/06 00:57:51;;;;;;;6.50;1.23;;;;;;;9.92;100.00;100136.56;5014721;28;20092;-89
2022/10/06 01:00:18;;;;;;;2.33;1.00;;;;;;;10.10;100.00;100135.72;5015558;28;20054;-89
2022/10/06 01:02:53;;;;;;;2.78;1.00;;;;;;;10.13;100.00;100114.66;5015608;28;20476;-91
2022/10/06 01:05:26;;;;;;;4.70;1.30;;;;;;;10.41;100.00;100132.59;4998788;28;20104;-91
2022/10/06 01:07:53;;;;;;;;;;;;;;;10.88;100.00;100139.09;4999806;28;20115;-91
2022/10/06 01:10:20;;;;;;;3.55;1.10;;;;;;;10.92;100.00;100130.16;5011873;28;19929;-92
2022/10/06 01:12:47;;;;;;;2.33;1.10;;;;;;;10.98;100.00;100101.06;4996838;28;20540;-90
2022/10/06 01:15:15;;;;;;;6.18;1.83;;;;;;;11.21;100.00;100117.41;4999156;28;20050;-91
2022/10/06 01:17:47;;;;;;;4.35;1.52;;;;;;;11.52;100.00;100124.56;4999310;28;20108;-91
2022/10/06 01:20:17;;;;;;;6.10;1.30;;;;;;;11.53;100.00;100109.69;5016189;28;20057;-91
2022/10/06 01:22:47;;;;;;;3.67;1.20;;;;;;;11.57;100.00;100119.91;5015190;28;20455;-91
2022/10/06 01:25:16;;;;;;;3.33;1.10;;;;;;;11.61;100.00;100097.00;4998531;28;20112;-91
2022/10/06 01:27:50;;;;;;;8.20;1.70;;;;;;;11.31;100.00;100096.81;5005368;28;20105;-91
2022/10/06 01:30:23;;;;;;;7.93;1.52;;;;;;;11.41;100.00;100071.84;5011058;28;20440;-92
2022/10/06 01:32:51;;;;;;;15.48;1.90;;;;;;;11.23;100.00;100067.56;4999487;28;20192;-91
2022/10/06 01:35:18;;;;;;;7.10;1.67;;;;;;;11.46;100.00;100118.78;4998345;28;20092;-91
2022/10/06 01:37:44;;;;;;;6.30;1.42;;;;;;;11.83;100.00;100107.25;4999353;28;20531;-92
2022/10/06 01:40:11;;;;;;;6.90;1.52;;;;;;;11.75;100.00;100085.81;4998622;28;20127;-91
2022/10/06 01:42:38;;;;;;;5.18;1.55;;;;;;;11.86;100.00;100135.06;4998030;28;20038;-90
2022/10/06 01:45:05;;;;;;;6.28;1.65;;;;;;;11.79;100.00;100110.94;4998140;28;20480;-91
2022/10/06 01:47:33;;;;;;;4.75;1.42;;;;;;;11.50;100.00;100094.94;4985015;28;20452;-91
2022/10/06 01:50:00;;;;;;;4.47;1.20;;;;;;;11.49;100.00;100092.41;4998723;28;20483;-91
2022/10/06 01:52:26;;;;;;;3.38;1.10;;;;;;;11.31;100.00;100060.97;4998097;28;20473;-91
2022/10/06 01:54:53;;;;;;;6.80;1.30;;;;;;;11.23;100.00;100062.31;4998842;28;20487;-90
2022/10/06 01:57:20;;;;;;;7.28;1.35;;;;;;;11.46;100.00;100106.53;4995283;28;20051;-90
2022/10/06 01:59:47;;;;;;;10.50;1.73;;;;;;;11.49;100.00;100139.59;4984010;28;20042;-90
2022/10/06 02:02:20;;;;;;;9.10;1.63;;;;;;;11.39;100.00;100126.13;5010059;28;20535;-90
2022/10/06 02:04:46;;;;;;;11.00;1.50;;;;;;;11.25;100.00;100129.44;4997923;28;20070;-90
2022/10/06 02:07:13;;;;;;;7.82;1.55;;;;;;;11.19;100.00;100122.72;4997023;28;20057;-90
2022/10/06 02:09:40;;;;;;;9.05;1.60;;;;;;;10.93;100.00;100095.19;4998193;28;20050;-90
2022/10/06 02:12:06;;;;;;;5.38;1.15;;;;;;;10.89;100.00;100087.56;4997793;28;20046;-91
2022/10/06 02:14:33;;;;;;;8.30;1.50;;;;;;;10.98;100.00;100101.06;5015434;28;20054;-90
2022/10/06 02:17:00;;;;;;;4.82;1.33;;;;;;;11.06;100.00;100107.69;5015063;28;20571;-90
2022/10/06 02:19:27;;;;;;;2.75;1.10;;;;;;;11.16;100.00;100128.13;4991857;28;20058;-90
2022/10/06 02:21:54;;;;;;;6.68;1.50;;;;;;;11.04;100.00;100143.59;5015145;28;20050;-90
2022/10/06 02:24:21;;;;;;;7.28;1.60;;;;;;;10.98;100.00;100156.06;4997800;28;20058;-90
2022/10/06 02:26:47;;;;;;;9.05;1.50;;;;;;;11.00;100.00;100138.50;4997078;28;20069;-89
2022/10/06 02:29:14;;;;;;;9.40;1.73;;;;;;;10.84;100.00;100142.78;4997260;28;20104;-89
2022/10/06 02:31:41;;;;;;;9.27;2.08;;;;;;;10.66;100.00;100141.91;4996128;28;20082;-91
2022/10/06 02:34:08;;;;;;;11.95;1.95;;;;;;;10.69;100.00;100133.03;5013847;28;20062;-90
2022/10/06 02:36:35;;;;;;;9.98;1.60;;;;;;;10.76;100.00;100127.44;4997271;28;20054;-91
2022/10/06 02:39:02;;;;;;;9.32;1.77;;;;;;;10.50;100.00;100107.75;4984239;28;20108;-91
2022/10/06 02:41:31;;;;;;;6.43;1.77;;;;;;;10.79;100.00;100150.03;4996009;28;20103;-90
2022/10/06 02:43:58;;;;;;;14.70;2.88;;;;;;;10.40;100.00;100096.00;4993451;28;20042;-90
2022/10/06 02:46:25;;;;;;;8.82;1.55;;;;;;;10.75;100.00;100124.91;4992173;28;20049;-91
2022/10/06 02:48:52;;;;;;;8.98;1.92;;;;;;;10.68;100.00;100126.09;4996802;28;20057;-91
2022/10/06 02:51:20;;;;;;;5.90;1.77;;;;;;;10.77;100.00;100138.78;4997448;28;20053;-90
2022/10/06 02:53:48;;;;;;;9.00;1.70;;;;;;;10.69;100.00;100123.41;4996597;28;20038;-91
2022/10/06 02:56:21;;;;;;;8.55;1.90;;;;;;;10.66;100.00;100152.38;4997214;28;20053;-91
2022/10/06 02:58:49;;;;;;;9.23;2.00;;;;;;;10.40;100.00;100119.56;5013430;28;20105;-91
2022/10/06 03:01:24;;;;;;;8.02;1.83;;;;;;;10.08;100.00;100106.16;4997109;28;20054;-90
2022/10/06 03:03:52;;;;;;;9.38;1.85;;;;;;;10.48;100.00;100146.22;4997011;28;20443;-90
2022/10/06 03:06:24;;;;;;;7.57;1.98;;;;;;;10.39;100.00;100144.91;4997179;28;20112;-91
2022/10/06 03:08:57;;;;;;;8.52;2.03;;;;;;;10.23;100.00;100128.16;5005856;28;20491;-90
2022/10/06 03:11:30;;;;;;;14.10;2.45;;;;;;;10.29;100.00;100145.34;4996566;28;20049;-90
2022/10/06 03:13:57;;;;;;;10.45;2.10;;;;;;;10.19;100.00;100148.38;4986925;28;20045;-89
2022/10/06 03:16:30;;;;;;;8.13;1.80;;;;;;;10.16;100.00;100158.97;4997214;28;20057;-90
2022/10/06 03:18:58;;;;;;;10.57;1.98;;;;;;;10.14;100.00;100154.75;4996548;28;20050;-90
2022/10/06 03:21:28;;;;;;;11.98;2.80;;;;;;;10.21;100.00;100164.00;4996574;28;20119;-91
2022/10/06 03:23:56;;;;;;;8.40;1.80;;;;;;;10.11;100.00;100134.81;4996334;28;20100;-91
2022/10/06 03:26:26;;;;;;;11.13;2.10;;;;;;;10.29;100.00;100174.97;4983078;28;20108;-91
2022/10/06 03:28:54;;;;;;;7.65;1.60;;;;;;;10.21;100.00;100167.47;4986697;28;20046;-90
2022/10/06 03:31:22;;;;;;;10.50;2.25;;;;;;;9.76;100.00;100098.00;4996453;28;20408;-91
2022/10/06 03:33:50;;;;;;;14.93;3.13;;;;;;;10.10;100.00;100168.88;4995922;28;20464;-92
2022/10/06 03:36:19;;;;;;;11.40;1.92;;;;;;;9.91;100.00;100108.69;4995870;28;20434;-91
2022/10/06 03:38:46;;;;;;;7.93;1.95;;;;;;;9.73;100.00;100094.69;4995746;28;20050;-88
2022/10/06 03:41:15;;;;;;;14.25;2.83;;;;;;;10.28;100.00;100157.56;4995867;28;20054;-90
2022/10/06 03:43:44;;;;;;;9.05;2.25;;;;;;;10.24;100.00;100158.66;4996405;28;20065;-90
2022/10/06 03:46:13;;;;;;;17.42;2.58;;;;;;;10.02;100.00;100153.50;4991929;28;20452;-90
2022/10/06 03:48:40;;;;;;;10.70;2.63;;;;;;;10.18;100.00;100151.94;5010914;28;20069;-90
2022/10/06 03:51:12;;;;;;;10.02;2.50;;;;;;;10.20;100.00;100133.53;5013368;28;20477;-91
2022/10/06 03:53:39;;;;;;;9.38;2.05;;;;;;;10.43;100.00;100162.16;5009117;28;20042;-90
2022/10/06 03:56:12;;;;;;;9.30;2.38;;;;;;;10.37;100.00;100144.09;4995586;28;20611;-90
2022/10/06 03:58:41;;;;;;;14.47;3.03;;;;;;;10.47;100.00;100148.94;5012525;28;20053;-90
2022/10/06 04:01:12;;;;;;;17.20;3.10;;;;;;;10.12;100.00;100102.47;4996285;28;20433;-91
2022/10/06 04:03:39;;;;;;;14.52;2.42;;;;;;;10.65;100.00;100150.66;4994301;28;20085;-91
2022/10/06 04:06:10;;;;;;;12.70;2.78;;;;;;;10.48;100.00;100120.03;5013440;28;20111;-91
2022/10/06 04:08:38;;;;;;;14.10;2.42;;;;;;;10.68;100.00;100147.91;4981898;28;20047;-90
2022/10/06 04:11:10;;;;;;;11.07;2.42;;;;;;;10.58;100.00;100159.72;4995939;28;20062;-88
2022/10/06 04:13:38;;;;;;;13.63;3.58;;;;;;;10.32;100.00;100112.06;5012801;28;20057;-89
2022/10/06 04:16:21;;;;;;;14.60;2.72;;;;;;;10.85;100.00;100147.09;4994728;28;20100;-89
2022/10/06 04:18:50;;;;;;;11.52;2.50;;;;;;;10.60;100.00;100131.72;4996399;28;20050;-89
2022/10/06 04:21:17;;;;;;;13.77;3.08;;;;;;;10.52;100.00;100115.53;5011668;28;20103;-90
2022/10/06 04:23:45;;;;;;;14.80;4.03;;;;;;;10.82;100.00;100119.28;4994680;28;20046;-90
2022/10/06 04:26:15;;;;;;;20.17;3.33;;;;;;;10.76;100.00;100119.56;5011391;28;20451;-90
2022/10/06 04:28:43;;;;;;;13.68;3.38;;;;;;;10.80;100.00;100134.25;4996322;28;20054;-91
2022/10/06 04:31:17;;;;;;;15.07;4.00;;;;;;;10.99;100.00;100136.78;4999667;28;20053;-91
2022/10/06 04:33:46;;;;;;;14.18;3.22;;;;;;;10.87;100.00;100137.41;5016022;28;20711;-90
2022/10/06 04:36:16;;;;;;;15.98;3.47;;;;;;;10.84;100.00;100119.22;5024088;28;20057;-90
2022/10/06 04:38:43;;;;;;;13.85;2.78;;;;;;;11.00;100.00;100119.31;5000424;28;20042;-91
2022/10/06 04:41:13;;;;;;;13.55;2.58;;;;;;;10.90;100.00;100132.00;5004116;28;20104;-92
2022/10/06 04:43:40;;;;;;;12.80;2.88;;;;;;;10.95;100.00;100122.16;4999039;28;20439;-87
2022/10/06 04:46:08;;;;;;;16.67;2.85;;;;;;;11.14;100.00;100129.13;4998145;28;20107;-91
2022/10/06 04:48:55;;;;;;;11.65;2.42;;;;;;;11.15;100.00;100136.88;4999512;28;20077;-87
2022/10/06 04:51:25;;;;;;;12.98;2.25;;;;;;;11.18;100.00;100141.16;4998289;28;20050;-86
2022/10/06 04:53:51;;;;;;;12.25;2.38;;;;;;;11.26;100.00;100146.00;5015795;28;20100;-89
2022/10/06 04:56:22;;;;;;;10.60;2.60;;;;;;;11.16;100.00;100127.28;5014123;28;20062;-90
2022/10/06 04:58:51;;;;;;;10.95;2.67;;;;;;;10.98;100.00;100108.09;4996862;28;20100;-89
2022/10/06 05:01:22;;;;;;;16.48;2.53;;;;;;;11.37;100.00;100149.78;4992125;28;20100;-87
2022/10/06 05:03:54;;;;;;;14.75;2.33;;;;;;;11.36;100.00;100139.38;5015103;28;20092;-88
2022/10/06 05:06:39;;;;;;;9.20;2.30;;;;;;;11.58;100.00;100152.25;4999378;28;20050;-91
2022/10/06 05:09:09;;;;;;;9.90;2.22;;;;;;;11.32;100.00;100143.91;4996201;28;20050;-90
2022/10/06 05:11:37;;;;;;;10.50;2.13;;;;;;;11.32;100.00;100143.91;5011789;28;20045;-91
2022/10/06 05:14:03;;;;;;;8.77;1.85;;;;;;;11.51;100.00;100159.56;5027301;28;20057;-88
2022/10/06 05:16:31;;;;;;;4.50;1.50;;;;;;;11.28;100.00;100110.06;4997597;28;20057;-88
2022/10/06 05:18:58;;;;;;;7.97;1.60;;;;;;;11.44;100.00;100154.69;4997760;28;20080;-87
2022/10/06 05:21:28;;;;;;;8.50;1.92;;;;;;;11.26;100.00;100143.38;4997395;28;20470;-88
2022/10/06 05:23:55;;;;;;;4.68;1.40;;;;;;;11.38;100.00;100166.34;5005512;28;20058;-88
2022/10/06 05:26:24;;;;;;;8.15;1.55;;;;;;;11.34;100.00;100157.78;4994024;28;20061;-88
2022/10/06 05:28:50;;;;;;;13.77;2.67;;;;;;;11.27;100.00;100158.19;5005635;28;20066;-88
2022/10/06 05:31:23;;;;;;;10.20;1.88;;;;;;;11.25;100.00;100162.66;4998434;28;20056;-89
2022/10/06 05:33:50;;;;;;;8.30;1.60;;;;;;;11.23;100.00;100167.13;4993278;28;20046;-90
2022/10/06 05:36:19;;;;;;;6.13;1.70;;;;;;;11.32;100.00;100185.84;5004167;28;20112;-90
2022/10/06 05:38:47;;;;;;;6.93;1.70;;;;;;;11.23;100.00;100180.22;4993121;28;20046;-90
2022/10/06 05:41:25;;;;;;;5.40;1.35;;;;;;;11.23;100.00;100196.78;5002640;28;20535;-91
2022/10/06 05:43:52;;;;;;;4.47;1.23;;;;;;;11.18;100.00;100185.69;5003297;28;20042;-92
2022/10/06 05:46:22;;;;;;;5.68;1.42;;;;;;;11.10;100.00;100201.78;4995135;28;20060;-87
2022/10/06 05:48:57;;;;;;;5.22;1.42;;;;;;;11.01;100.00;100183.88;5006358;28;20374;-88
2022/10/06 05:51:27;;;;;;;5.70;1.30;;;;;;;10.90;100.00;100171.28;4992106;28;20050;-91
2022/10/06 05:53:58;;;;;;;5.07;1.50;;;;;;;10.97;100.00;100208.53;4996569;28;20069;-90
2022/10/06 05:56:30;;;;;;;3.00;1.10;;;;;;;10.63;100.00;100163.00;5003966;28;20488;-91
2022/10/06 05:58:57;;;;;;;4.55;1.40;;;;;;;10.81;100.00;100198.75;4997525;28;20050;-90
2022/10/06 06:01:36;;;;;;;3.08;1.20;;;;;;;10.78;100.00;100204.16;4995294;28;20054;-91
2022/10/06 06:04:05;;;;;;;5.28;1.30;;;;;;;10.64;100.00;100215.28;5002445;28;20128;-91
2022/10/06 06:06:37;;;;;;;5.28;1.15;;;;;;;10.43;100.00;100184.88;4996802;28;20052;-91
2022/10/06 06:09:16;;;;;;;3.70;1.10;;;;;;;10.49;100.00;100225.59;4998874;28;20056;-91
2022/10/06 06:11:45;;;;;;;3.42;1.10;;;;;;;10.32;100.00;100227.19;4998070;28;20382;-91
2022/10/06 06:15:59;;;;;;;5.85;1.20;;;;;;;10.08;100.00;100198.56;4996091;28;20042;-87
2022/10/06 06:17:10;;;;;;;10.88;1.98;;;;;;;10.01;100.00;100199.75;5001145;28;20127;-89
2022/10/06 06:19:37;;;;;;;6.93;1.45;;;;;;;9.98;100.00;100222.56;4986766;28;20092;-85
2022/10/06 06:22:03;;;;;;;6.53;1.30;;;;;;;9.69;100.00;100188.06;4991670;28;20103;-89
2022/10/06 06:24:30;;;;;;;5.50;1.30;;;;;;;9.62;100.00;100184.03;5006798;28;20464;-89
2022/10/06 06:26:57;;;;;;;8.70;1.40;;;;;;;9.94;100.00;100236.72;5013164;28;20089;-90
2022/10/06 06:29:23;;;;;;;9.32;1.45;;;;;;;9.84;100.00;100236.22;4998400;28;20046;-88
2022/10/06 06:31:50;;;;;;;9.10;1.42;;;;;;;9.86;100.00;100248.34;4997935;28;20057;-89
2022/10/06 06:34:17;;;;;;;4.85;1.55;;;;;;;9.79;100.00;100249.53;4993182;28;20415;-88
2022/10/06 06:36:46;;;;;;;6.30;1.35;;;;;;;9.79;100.00;100257.38;5000973;28;20099;-89
2022/10/06 06:39:14;;;;;;;3.92;1.40;;;;;;;9.86;100.00;100261.41;4995625;28;20050;-89
2022/10/06 06:41:45;;;;;;;5.57;1.70;;;;;;;9.73;100.00;100267.22;5018237;28;20727;-89
2022/10/06 06:44:12;;;;;;;4.95;1.77;;;;;;;9.73;100.00;100275.06;4996295;28;20055;-89
2022/10/06 06:46:42;;;;;;;6.10;1.50;;;;;;;9.82;100.00;100282.53;4997439;28;20125;-89
2022/10/06 06:49:10;;;;;;;4.00;1.30;;;;;;;9.94;100.00;100287.22;5018222;28;20384;-89
2022/10/06 06:51:40;;;;;;;9.52;2.47;;;;;;;9.67;100.00;100255.25;5020481;28;20057;-89
2022/10/06 06:54:08;;;;;;;21.25;2.88;;;;;;;9.81;100.00;100279.06;5013450;28;20053;-88
2022/10/06 06:56:35;;;;;;;7.88;1.63;;;;;;;9.69;100.00;100233.34;5006740;28;20507;-90
2022/10/06 06:59:07;;;;;;;11.43;1.73;;;;;;;10.04;100.00;100285.94;5009300;28;20052;-89
2022/10/06 07:01:35;;;;;;;4.70;1.30;;;;;;;10.04;100.00;100295.56;5001662;28;20053;-90
2022/10/06 07:04:02;;;;;;;8.63;1.67;;;;;;;9.94;100.00;100294.25;5007671;28;20459;-88
2022/10/06 07:06:30;;;;;;;6.68;1.70;;;;;;;9.96;100.00;100284.56;4995634;28;20053;-89
2022/10/06 07:08:59;;;;;;;10.30;1.55;;;;;;;10.21;100.00;100302.66;5011391;28;20050;-88
2022/10/06 07:11:30;;;;;;;3.83;1.40;;;;;;;10.02;100.00;100265.97;5010888;28;20080;-89
2022/10/06 07:14:02;;;;;;;4.60;1.65;;;;;;;10.45;100.00;100282.47;5000260;28;20041;-89
2022/10/06 07:25:10;;;;;;;6.60;1.90;;;;;;;12.51;100.00;100290.03;5009258;28;20053;-89
2022/10/06 07:27:45;;;;;;;11.35;2.58;;;;;;;13.25;100.00;100317.59;5000845;28;20046;-89
2022/10/06 07:30:12;;;;;;;8.57;2.28;;;;;;;13.35;100.00;100329.34;5014726;28;20046;-89
2022/10/06 07:32:38;;;;;;;7.53;1.77;;;;;;;13.20;100.00;100293.34;5001377;28;20400;-89
2022/10/06 07:35:06;;;;;;;7.43;1.73;;;;;;;13.84;100.00;100342.31;4992268;28;20046;-89
2022/10/06 07:37:35;;;;;;;9.95;2.35;;;;;;;13.94;100.00;100340.03;4996913;28;20050;-90
2022/10/06 07:40:06;;;;;;;7.85;1.65;;;;;;;14.14;100.00;100312.53;5020930;28;20108;-89
2022/10/06 07:42:46;;;;;;;12.70;2.08;;;;;;;14.29;100.00;100310.78;5010427;28;20041;-88
2022/10/06 07:48:00;;;;;;;7.18;1.75;;;;;;;14.60;100.00;100341.41;5013135;28;20084;-90
2022/10/06 07:50:27;;;;;;;10.27;2.00;;;;;;;14.98;100.00;100359.28;5008537;28;20049;-89
2022/10/06 07:52:54;;;;;;;9.20;2.10;;;;;;;14.87;100.00;100314.28;5025989;28;20472;-89
2022/10/06 07:55:21;;;;;;;12.77;2.30;;;;;;;15.22;100.00;100334.13;4996383;28;20100;-88
2022/10/06 07:57:50;;;;;;;9.10;2.15;;;;;;;15.45;100.00;100356.41;4998996;28;20053;-89
2022/10/06 08:00:19;;;;;;;11.23;2.47;;;;;;;15.32;100.00;100327.31;5010534;28;20065;-89
2022/10/06 08:02:47;;;;;;;11.52;2.45;;;;;;;15.59;100.00;100329.97;4987350;28;20053;-89
2022/10/06 08:05:14;;;;;;;14.50;2.30;;;;;;;15.34;100.00;100273.50;4995039;28;20476;-88
2022/10/06 08:07:40;;;;;;;11.75;2.30;;;;;;;15.83;100.00;100338.13;5009264;28;20046;-89
2022/10/06 08:10:07;;;;;;;9.75;2.45;;;;;;;15.40;100.00;100279.34;4995750;28;20108;-90
2022/10/06 08:12:36;;;;;;;9.43;1.92;;;;;;;15.93;100.00;100311.94;4995764;28;20050;-89
2022/10/06 08:15:06;;;;;;;12.27;2.13;;;;;;;15.52;100.00;100303.13;4994198;28;20074;-89
2022/10/06 08:17:35;;;;;;;16.13;3.83;;;;;;;15.34;100.00;100312.25;4999360;28;20049;-90
2022/10/06 08:20:07;;;;;;;15.18;3.13;;;;;;;15.65;100.00;100358.59;4995646;28;20140;-89
2022/10/06 08:22:37;;;;;;;12.47;3.07;;;;;;;15.97;100.00;100368.88;4995247;28;20054;-88
2022/10/06 08:25:09;;;;;;;27.13;3.75;;;;;;;16.14;100.00;100389.72;4992352;28;20283;-88
2022/10/06 08:27:37;;;;;;;13.77;3.03;;;;;;;15.74;100.00;100358.03;5004517;28;20062;-87
2022/10/06 08:30:06;;;;;;;15.27;2.85;;;;;;;15.54;100.00;100361.06;5008368;28;20050;-88
2022/10/06 08:32:33;;;;;;;13.77;3.10;;;;;;;15.74;100.00;100380.88;5006222;28;20496;-93
2022/10/06 08:35:00;;;;;;;7.78;2.00;;;;;;;16.01;100.00;100386.22;4998988;28;20057;-94
2022/10/06 08:37:27;;;;;;;9.00;2.03;;;;;;;15.94;100.00;100338.22;4999354;28;20053;-93
2022/10/06 08:39:55;;;;;;;8.13;2.00;;;;;;;15.95;100.00;100378.69;4998008;28;20369;-95
2022/10/06 08:42:38;;;;;;;14.57;2.30;;;;;;;16.05;100.00;100363.91;4999417;28;20484;-95
2022/10/06 08:45:15;;;;;;;10.25;1.85;;;;;;;16.46;100.00;100380.59;4999960;28;20475;-94
2022/10/06 08:47:57;;;;;;;11.27;2.00;;;;;;;15.85;100.00;100386.38;4999586;28;20057;-95
2022/10/06 08:50:27;;;;;;;11.07;2.33;;;;;;;15.96;100.00;100406.78;5014128;28;20046;-90
2022/10/06 08:53:25;;;;;;;12.63;2.63;;;;;;;15.41;100.00;100402.38;4996830;28;20104;-91
2022/10/06 08:56:07;;;;;;;13.52;1.98;;;;;;;15.67;100.00;100406.84;4973004;28;20054;-91
2022/10/06 08:58:56;;;;;;;9.23;2.03;;;;;;;15.73;100.00;100413.53;4999003;28;20046;-91
2022/10/06 09:01:26;;;;;;;10.15;2.05;;;;;;;15.47;100.00;100394.91;5020707;28;20065;-91
2022/10/06 09:04:00;;;;;;;8.07;1.90;;;;;;;15.83;100.00;100419.06;5003153;28;20073;-92
2022/10/06 09:07:05;;;;;;;9.25;2.10;;;;;;;15.87;100.00;100433.78;5005288;28;20485;-92
2022/10/06 09:09:52;;;;;;;10.98;2.13;;;;;;;15.76;100.00;100392.25;4922142;29;20152;-92
2022/10/06 09:12:31;;;;;;;8.80;2.50;;;;;;;16.21;100.00;100426.31;4991983;28;20057;-92
2022/10/06 09:15:22;;;;;;;12.60;2.40;;;;;;;15.86;100.00;100400.41;4996711;28;20460;-91
2022/10/06 09:17:55;;;;;;;7.70;1.63;;;;;;;16.00;100.00;100404.78;5013580;28;20049;-90
2022/10/06 09:20:33;;;;;;;11.35;2.10;;;;;;;15.83;100.00;100405.88;4999331;28;20507;-91
2022/10/06 09:23:03;;;;;;;6.20;1.70;;;;;;;16.27;100.00;100429.38;4999256;28;20061;-90
2022/10/06 09:25:30;;;;;;;8.32;1.98;;;;;;;16.06;100.00;100407.88;4995779;28;20405;-91
2022/10/06 09:27:59;;;;;;;9.23;2.15;;;;;;;16.49;100.00;100436.72;4996773;28;20050;-92
2022/10/06 09:30:26;;;;;;;7.93;1.50;;;;;;;16.08;98.96;100427.09;5030204;28;20064;-92
2022/10/06 09:32:58;;;;;;;9.18;1.73;;;;;;;16.18;94.54;100426.50;5016112;28;20049;-93
2022/10/06 09:35:28;;;;;;;6.25;1.45;;;;;;;16.26;93.29;100385.41;5004753;28;20061;-91
2022/10/06 09:37:58;;;;;;;7.78;1.90;;;;;;;16.46;89.41;100414.94;5029437;28;20050;-90
2022/10/06 09:40:33;;;;;;;9.40;1.83;;;;;;;16.82;91.85;100445.09;4995865;28;20058;-91
2022/10/06 09:43:01;;;;;;;11.20;1.75;;;;;;;16.72;90.59;100421.09;4999089;28;20046;-92
2022/10/06 09:45:28;;;;;;;9.93;1.95;;;;;;;16.20;92.10;100400.81;4997437;28;20050;-92
2022/10/06 09:48:19;;;;;;;13.23;2.60;;;;;;;16.22;89.02;100414.78;5024547;28;20152;-92
2022/10/06 09:51:13;;;;;;;10.15;2.80;;;;;;;15.87;98.10;100424.06;4994688;28;20137;-87
2022/10/06 09:53:41;;;;;;;13.27;2.55;;;;;;;16.56;94.56;100446.88;5004224;28;20049;-88
2022/10/06 09:56:18;;;;;;;12.38;2.25;;;;;;;16.59;95.88;100415.81;5017416;28;20056;-88
2022/10/06 09:58:56;;;;;;;19.95;3.85;;;;;;;17.04;96.43;100457.75;4984152;28;20057;-88
2022/10/06 10:01:28;;;;;;;12.60;2.47;;;;;;;16.54;99.02;100470.78;5000963;28;20112;-88
2022/10/06 10:04:22;;;;;;;9.95;2.42;;;;;;;16.76;98.05;100458.75;5004678;28;20052;-88
2022/10/06 10:06:50;;;;;;;14.70;2.65;;;;;;;16.68;98.61;100448.72;4997729;28;20115;-89
2022/10/06 10:09:20;;;;;;;12.45;2.92;;;;;;;16.82;94.36;100475.06;5008233;28;20042;-89
2022/10/06 10:12:26;;;;;;;11.07;2.20;;;;;;;16.45;94.24;100456.38;4996196;28;20053;-88
2022/10/06 10:15:00;;;;;;;12.55;2.42;;;;;;;16.27;99.79;100458.44;5003429;28;20069;-88
2022/10/06 10:17:36;;;;;;;9.30;1.77;;;;;;;16.95;97.91;100463.66;4994581;28;20132;-88
2022/10/06 10:20:18;;;;;;;12.52;2.92;;;;;;;16.27;99.83;100457.59;4996841;28;20049;-88
2022/10/06 10:22:47;;;;;;;9.40;2.05;;;;;;;16.22;96.41;100420.94;4996712;28;20108;-88
2022/10/06 10:25:26;;;;;;;11.50;2.50;;;;;;;16.01;100.00;100461.94;5007131;28;20112;-88
2022/10/06 10:28:27;;;;;;;12.93;2.25;;;;;;;16.39;100.00;100448.00;4996637;28;20058;-88
2022/10/06 10:31:32;;;;;;;7.63;1.55;;;;;;;16.82;96.44;100434.53;4995130;28;20051;-88
2022/10/06 10:34:17;;;;;;;8.32;1.98;;;;;;;17.23;91.46;100455.50;4993496;28;20049;-88
2022/10/06 10:37:08;;;;;;;8.98;2.15;;;;;;;17.25;93.12;100448.31;5010242;28;20056;-88
2022/10/06 10:39:40;;;;;;;14.15;2.80;;;;;;;17.11;92.27;100402.63;4999518;28;20403;-88
2022/10/06 10:42:27;;;;;;;12.30;2.33;;;;;;;17.08;89.26;100382.50;5004899;28;20100;-87
2022/10/06 10:45:03;;;;;;;7.85;1.55;;;;;;;17.63;88.87;100412.13;4996945;28;20480;-88
2022/10/06 10:47:38;;;;;;;8.27;1.80;;;;;;;17.74;84.77;100388.38;4992723;28;20551;-88
2022/10/06 10:50:33;;;;;;;8.75;1.92;;;;;;;17.99;83.65;100427.16;4996937;28;20050;-88
2022/10/06 10:53:09;;;;;;;10.13;1.98;;;;;;;17.58;76.01;100396.59;4995142;28;20475;-89
2022/10/06 10:55:41;;;;;;;10.52;1.90;;;;;;;17.48;75.44;100431.78;4985128;28;20057;-89
2022/10/06 10:58:30;;;;;;;10.48;2.40;;;;;;;17.69;72.65;100463.78;5022381;28;20054;-88
2022/10/06 11:01:30;;;;;;;8.13;1.95;;;;;;;17.57;71.61;100429.28;5005474;28;20476;-88
2022/10/06 11:03:59;;;;;;;12.38;2.00;;;;;;;17.19;73.23;100377.31;4984050;28;20531;-89
2022/10/06 11:06:52;;;;;;;9.07;1.88;;;;;;;18.02;71.68;100461.38;4996231;28;20147;-87
2022/10/06 11:09:48;;;;;;;12.50;2.28;;;;;;;17.74;71.65;100451.91;5015646;28;20049;-88
2022/10/06 11:12:39;;;;;;;10.70;2.28;;;;;;;17.46;72.52;100477.72;4995176;28;20054;-87
2022/10/06 11:15:16;;;;;;;11.30;1.83;;;;;;;16.95;73.14;100443.34;4996023;28;20053;-87
2022/10/06 11:17:45;;;;;;;8.48;1.90;;;;;;;17.17;75.29;100469.16;5000712;28;20065;-84
2022/10/06 11:20:12;;;;;;;10.25;1.75;;;;;;;17.31;75.72;100475.28;5003323;28;20057;-83
2022/10/06 11:22:40;;;;;;;12.10;2.40;;;;;;;17.44;76.78;100482.25;4993219;28;20487;-84
2022/10/06 11:25:18;;;;;;;9.93;1.80;;;;;;;17.65;76.56;100482.53;4997894;28;20046;-92
2022/10/06 11:28:23;;;;;;;11.82;2.58;;;;;;;17.77;75.58;100477.31;4999181;28;20052;-88
2022/10/06 11:31:15;;;;;;;9.70;1.88;;;;;;;17.39;76.89;100484.38;4998009;28;20409;-86
2022/10/06 11:33:51;;;;;;;11.27;2.65;;;;;;;17.49;71.29;100478.44;5012964;28;20057;-87
2022/10/06 11:36:36;;;;;;;8.88;2.03;;;;;;;17.61;70.08;100496.09;4999159;28;20049;-88
2022/10/06 11:39:21;;;;;;;7.70;1.90;;;;;;;17.42;69.30;100501.84;4989166;28;20104;-88
2022/10/06 11:41:57;;;;;;;9.27;1.67;;;;;;;17.23;70.90;100510.22;4994842;28;20108;-87
2022/10/06 11:44:35;;;;;;;10.48;1.92;;;;;;;17.07;72.00;100505.16;5001040;28;20392;-87
2022/10/06 11:47:10;;;;;;;9.20;2.10;;;;;;;17.04;71.62;100514.13;5008611;28;20447;-86
2022/10/06 11:49:51;;;;;;;14.48;2.17;;;;;;;16.93;69.90;100497.28;5006505;28;20120;-87